Derby Field Lovelock US
ICAO: KLOL
IATA: LOL
Category: Medium
Scheduled Services: No

Elevation: 3904 ft
TransAlt. 18000 ft.

Airport Communications:
ASOS:120.675
OAKLAND CNTR:128.8
RENO RDO:122.4
CTAF/UNICOM:122.8

KLOL Zoom In..

If you have problems with the map follow the link
https://www.worldairports.se/pages/airport.php?
ICAO=KLOL

Runways:

(A) RW 02 length 5529 ft width 75 ft
---- / hdg 16

(B) RW 08 length 4931 ft width 75 ft
---- / hdg 76

(C) RW 20 length 5529 ft width 75 ft
---- / hdg 196

(D) RW 26 length 4931 ft width 75 ft
---- / hdg 256

Location; KLOL
Day. 14 / Time. 10.53 Zulu
* Altimeter: 30.47
* Temperature: -09° c. -15.8°f.
* Wind from: 000° Speed 00 kn.
Dewpoint: -14° c.
Visibility: 10 Statute Miles.
Clouds: Clear (automated report).

KLOL 141053Z AUTO 00000KT 10SM CLR M09/M14 A3047 RMK AO2 SLP340 T10891144


Wind - Calm.

 
 
jpsmedia.com for Web Design worldairports.se 2018   terms of use